sensor_id;sensor_type;location;lat;lon;timestamp;temperature;humidity
19033;DHT22;9649;51.042;13.804;2022-11-23T00:03:39;4.10;1.00
19033;DHT22;9649;51.042;13.804;2022-11-23T00:08:42;4.10;1.00
19033;DHT22;9649;51.042;13.804;2022-11-23T00:13:45;4.10;1.00
19033;DHT22;9649;51.042;13.804;2022-11-23T00:18:51;4.00;1.00
19033;DHT22;9649;51.042;13.804;2022-11-23T00:23:54;4.00;1.00
19033;DHT22;9649;51.042;13.804;2022-11-23T00:28:57;3.90;1.00
19033;DHT22;9649;51.042;13.804;2022-11-23T00:34:01;3.90;1.00
19033;DHT22;9649;51.042;13.804;2022-11-23T00:39:04;3.90;1.00
19033;DHT22;9649;51.042;13.804;2022-11-23T00:44:06;3.90;1.00
19033;DHT22;9649;51.042;13.804;2022-11-23T00:49:11;3.90;1.00
19033;DHT22;9649;51.042;13.804;2022-11-23T00:54:13;3.80;1.00
19033;DHT22;9649;51.042;13.804;2022-11-23T00:59:16;3.80;1.00
19033;DHT22;9649;51.042;13.804;2022-11-23T01:04:20;3.90;1.00
19033;DHT22;9649;51.042;13.804;2022-11-23T01:09:23;3.90;1.00
19033;DHT22;9649;51.042;13.804;2022-11-23T01:14:27;3.80;1.00
19033;DHT22;9649;51.042;13.804;2022-11-23T01:19:31;3.80;1.00
19033;DHT22;9649;51.042;13.804;2022-11-23T01:24:34;3.80;1.00
19033;DHT22;9649;51.042;13.804;2022-11-23T01:29:37;3.70;28.90
19033;DHT22;9649;51.042;13.804;2022-11-23T01:34:41;3.60;99.90
19033;DHT22;9649;51.042;13.804;2022-11-23T01:39:44;3.60;99.90
19033;DHT22;9649;51.042;13.804;2022-11-23T01:44:47;3.60;99.90
19033;DHT22;9649;51.042;13.804;2022-11-23T01:49:52;3.60;99.90
19033;DHT22;9649;51.042;13.804;2022-11-23T01:54:57;3.60;99.90
19033;DHT22;9649;51.042;13.804;2022-11-23T02:00:08;3.40;99.90
19033;DHT22;9649;51.042;13.804;2022-11-23T02:05:13;3.30;99.90
19033;DHT22;9649;51.042;13.804;2022-11-23T02:10:19;3.30;99.90
19033;DHT22;9649;51.042;13.804;2022-11-23T02:15:23;3.30;99.90
19033;DHT22;9649;51.042;13.804;2022-11-23T02:20:27;3.30;99.90
19033;DHT22;9649;51.042;13.804;2022-11-23T02:25:37;3.30;99.90
19033;DHT22;9649;51.042;13.804;2022-11-23T02:30:45;3.30;99.90
19033;DHT22;9649;51.042;13.804;2022-11-23T02:35:51;3.30;99.90
19033;DHT22;9649;51.042;13.804;2022-11-23T02:40:54;3.30;99.90
19033;DHT22;9649;51.042;13.804;2022-11-23T02:46:01;3.20;99.90
19033;DHT22;9649;51.042;13.804;2022-11-23T02:51:05;3.30;99.90
19033;DHT22;9649;51.042;13.804;2022-11-23T02:56:11;3.40;99.90
19033;DHT22;9649;51.042;13.804;2022-11-23T03:01:15;3.40;99.90
19033;DHT22;9649;51.042;13.804;2022-11-23T03:06:20;3.40;99.90
19033;DHT22;9649;51.042;13.804;2022-11-23T03:11:23;3.50;99.90
19033;DHT22;9649;51.042;13.804;2022-11-23T03:16:27;3.40;99.90
19033;DHT22;9649;51.042;13.804;2022-11-23T03:21:30;3.40;99.90
19033;DHT22;9649;51.042;13.804;2022-11-23T03:26:33;3.30;99.90
19033;DHT22;9649;51.042;13.804;2022-11-23T03:31:37;3.40;99.90
19033;DHT22;9649;51.042;13.804;2022-11-23T03:36:40;3.40;99.90
19033;DHT22;9649;51.042;13.804;2022-11-23T03:41:42;3.40;99.90
19033;DHT22;9649;51.042;13.804;2022-11-23T03:46:47;3.40;99.90
19033;DHT22;9649;51.042;13.804;2022-11-23T03:51:50;3.40;99.90
19033;DHT22;9649;51.042;13.804;2022-11-23T03:56:53;3.40;99.90
19033;DHT22;9649;51.042;13.804;2022-11-23T04:01:57;3.30;99.90
19033;DHT22;9649;51.042;13.804;2022-11-23T04:07:00;3.40;99.90
19033;DHT22;9649;51.042;13.804;2022-11-23T04:12:04;3.40;99.90
19033;DHT22;9649;51.042;13.804;2022-11-23T04:17:08;3.30;99.90
19033;DHT22;9649;51.042;13.804;2022-11-23T04:22:11;3.30;99.90
19033;DHT22;9649;51.042;13.804;2022-11-23T04:27:13;3.20;99.90
19033;DHT22;9649;51.042;13.804;2022-11-23T04:32:18;3.30;99.90
19033;DHT22;9649;51.042;13.804;2022-11-23T04:37:21;3.50;99.90
19033;DHT22;9649;51.042;13.804;2022-11-23T04:42:23;3.40;99.90
19033;DHT22;9649;51.042;13.804;2022-11-23T04:47:28;3.40;99.90
19033;DHT22;9649;51.042;13.804;2022-11-23T04:52:30;3.30;99.90
19033;DHT22;9649;51.042;13.804;2022-11-23T04:57:33;3.20;99.90
19033;DHT22;9649;51.042;13.804;2022-11-23T05:02:37;3.30;99.90
19033;DHT22;9649;51.042;13.804;2022-11-23T05:07:40;3.30;99.90
19033;DHT22;9649;51.042;13.804;2022-11-23T05:12:43;3.30;99.90
19033;DHT22;9649;51.042;13.804;2022-11-23T05:17:47;3.40;99.90
19033;DHT22;9649;51.042;13.804;2022-11-23T05:22:50;3.40;99.90
19033;DHT22;9649;51.042;13.804;2022-11-23T05:27:53;3.30;99.90
19033;DHT22;9649;51.042;13.804;2022-11-23T05:33:00;3.30;99.90
19033;DHT22;9649;51.042;13.804;2022-11-23T05:38:03;3.30;99.90
19033;DHT22;9649;51.042;13.804;2022-11-23T05:43:06;3.30;99.90
19033;DHT22;9649;51.042;13.804;2022-11-23T05:48:10;3.20;99.90
19033;DHT22;9649;51.042;13.804;2022-11-23T05:53:13;3.30;99.90
19033;DHT22;9649;51.042;13.804;2022-11-23T05:58:16;3.20;99.90
19033;DHT22;9649;51.042;13.804;2022-11-23T06:03:20;3.20;99.90
19033;DHT22;9649;51.042;13.804;2022-11-23T06:08:23;3.20;99.90
19033;DHT22;9649;51.042;13.804;2022-11-23T06:13:25;3.20;99.90
19033;DHT22;9649;51.042;13.804;2022-11-23T06:18:30;3.20;99.90
19033;DHT22;9649;51.042;13.804;2022-11-23T06:23:33;3.20;99.90
19033;DHT22;9649;51.042;13.804;2022-11-23T06:28:35;3.20;99.90
19033;DHT22;9649;51.042;13.804;2022-11-23T06:33:42;3.10;99.90
19033;DHT22;9649;51.042;13.804;2022-11-23T06:38:45;3.40;99.90
19033;DHT22;9649;51.042;13.804;2022-11-23T06:43:48;3.40;99.90
19033;DHT22;9649;51.042;13.804;2022-11-23T06:48:52;3.50;99.90
19033;DHT22;9649;51.042;13.804;2022-11-23T06:53:54;3.50;99.90
19033;DHT22;9649;51.042;13.804;2022-11-23T06:58:57;3.50;99.90
19033;DHT22;9649;51.042;13.804;2022-11-23T07:04:01;3.40;99.90
19033;DHT22;9649;51.042;13.804;2022-11-23T07:09:04;3.60;99.90
19033;DHT22;9649;51.042;13.804;2022-11-23T07:14:07;3.80;99.90
19033;DHT22;9649;51.042;13.804;2022-11-23T07:19:11;3.80;99.90
19033;DHT22;9649;51.042;13.804;2022-11-23T07:24:14;3.80;99.90
19033;DHT22;9649;51.042;13.804;2022-11-23T07:29:17;3.90;99.90
19033;DHT22;9649;51.042;13.804;2022-11-23T07:34:21;3.80;99.90
19033;DHT22;9649;51.042;13.804;2022-11-23T07:39:23;3.80;99.90
19033;DHT22;9649;51.042;13.804;2022-11-23T07:44:46;3.90;99.90
19033;DHT22;9649;51.042;13.804;2022-11-23T07:49:50;4.00;48.10
19033;DHT22;9649;51.042;13.804;2022-11-23T07:54:53;4.10;2.50
19033;DHT22;9649;51.042;13.804;2022-11-23T07:59:56;4.10;5.70
19033;DHT22;9649;51.042;13.804;2022-11-23T08:05:00;4.00;21.20
19033;DHT22;9649;51.042;13.804;2022-11-23T08:10:03;4.10;1.10
19033;DHT22;9649;51.042;13.804;2022-11-23T08:15:07;4.20;1.00
19033;DHT22;9649;51.042;13.804;2022-11-23T08:20:13;4.50;1.00
19033;DHT22;9649;51.042;13.804;2022-11-23T08:25:16;4.70;1.00
19033;DHT22;9649;51.042;13.804;2022-11-23T08:30:19;5.10;1.00
19033;DHT22;9649;51.042;13.804;2022-11-23T08:35:23;5.20;1.00
19033;DHT22;9649;51.042;13.804;2022-11-23T08:40:26;5.10;1.00
19033;DHT22;9649;51.042;13.804;2022-11-23T08:45:29;5.10;1.00
19033;DHT22;9649;51.042;13.804;2022-11-23T08:50:33;5.10;1.00
19033;DHT22;9649;51.042;13.804;2022-11-23T08:55:37;5.30;99.90
19033;DHT22;9649;51.042;13.804;2022-11-23T09:00:40;5.80;1.00
19033;DHT22;9649;51.042;13.804;2022-11-23T09:05:44;5.90;99.90
19033;DHT22;9649;51.042;13.804;2022-11-23T09:10:47;6.10;1.00
19033;DHT22;9649;51.042;13.804;2022-11-23T09:15:49;6.20;1.00
19033;DHT22;9649;51.042;13.804;2022-11-23T09:20:53;6.20;1.00
19033;DHT22;9649;51.042;13.804;2022-11-23T09:25:57;6.60;99.90
19033;DHT22;9649;51.042;13.804;2022-11-23T09:31:02;6.70;1.00
19033;DHT22;9649;51.042;13.804;2022-11-23T09:36:07;6.80;1.00
19033;DHT22;9649;51.042;13.804;2022-11-23T09:41:31;6.90;1.00
19033;DHT22;9649;51.042;13.804;2022-11-23T09:46:44;7.20;1.00
19033;DHT22;9649;51.042;13.804;2022-11-23T09:51:54;7.80;1.00
19033;DHT22;9649;51.042;13.804;2022-11-23T09:56:58;8.20;1.00
19033;DHT22;9649;51.042;13.804;2022-11-23T10:02:02;8.40;1.00
19033;DHT22;9649;51.042;13.804;2022-11-23T10:07:21;8.70;90.90
19033;DHT22;9649;51.042;13.804;2022-11-23T10:12:35;8.90;1.00
19033;DHT22;9649;51.042;13.804;2022-11-23T10:18:00;10.30;99.90
19033;DHT22;9649;51.042;13.804;2022-11-23T10:23:12;11.50;1.00
19033;DHT22;9649;51.042;13.804;2022-11-23T10:28:18;12.60;99.90
19033;DHT22;9649;51.042;13.804;2022-11-23T10:33:27;14.60;1.00
19033;DHT22;9649;51.042;13.804;2022-11-23T10:38:33;16.10;1.00
19033;DHT22;9649;51.042;13.804;2022-11-23T10:43:40;16.50;1.00
19033;DHT22;9649;51.042;13.804;2022-11-23T10:48:44;17.60;1.00
19033;DHT22;9649;51.042;13.804;2022-11-23T10:53:53;17.30;1.00
19033;DHT22;9649;51.042;13.804;2022-11-23T10:59:01;18.80;1.00
19033;DHT22;9649;51.042;13.804;2022-11-23T11:04:21;20.10;1.00
19033;DHT22;9649;51.042;13.804;2022-11-23T11:09:27;20.00;1.00
19033;DHT22;9649;51.042;13.804;2022-11-23T11:14:31;20.90;1.00
19033;DHT22;9649;51.042;13.804;2022-11-23T11:19:43;23.10;1.00
19033;DHT22;9649;51.042;13.804;2022-11-23T11:24:48;24.30;1.00
19033;DHT22;9649;51.042;13.804;2022-11-23T11:29:53;24.50;1.00
19033;DHT22;9649;51.042;13.804;2022-11-23T11:35:01;24.00;1.00
19033;DHT22;9649;51.042;13.804;2022-11-23T11:40:15;23.80;99.90
19033;DHT22;9649;51.042;13.804;2022-11-23T11:45:23;23.20;99.90
19033;DHT22;9649;51.042;13.804;2022-11-23T11:50:29;23.00;99.90
19033;DHT22;9649;51.042;13.804;2022-11-23T11:55:45;20.90;99.90
19033;DHT22;9649;51.042;13.804;2022-11-23T12:00:55;18.70;99.90
19033;DHT22;9649;51.042;13.804;2022-11-23T12:06:05;18.10;1.00
19033;DHT22;9649;51.042;13.804;2022-11-23T12:11:12;18.50;1.00
19033;DHT22;9649;51.042;13.804;2022-11-23T12:16:21;16.80;1.00
19033;DHT22;9649;51.042;13.804;2022-11-23T12:27:14;16.60;1.00
19033;DHT22;9649;51.042;13.804;2022-11-23T12:32:27;15.30;1.00
19033;DHT22;9649;51.042;13.804;2022-11-23T12:37:39;18.70;1.00
19033;DHT22;9649;51.042;13.804;2022-11-23T12:42:48;19.50;1.00
19033;DHT22;9649;51.042;13.804;2022-11-23T12:48:00;16.80;1.00
19033;DHT22;9649;51.042;13.804;2022-11-23T12:53:22;15.60;1.00
19033;DHT22;9649;51.042;13.804;2022-11-23T12:58:32;12.80;1.00
19033;DHT22;9649;51.042;13.804;2022-11-23T13:04:04;12.20;68.10
19033;DHT22;9649;51.042;13.804;2022-11-23T13:09:43;12.40;99.90
19033;DHT22;9649;51.042;13.804;2022-11-23T13:14:55;12.10;99.90
19033;DHT22;9649;51.042;13.804;2022-11-23T13:20:13;11.50;99.90
19033;DHT22;9649;51.042;13.804;2022-11-23T13:25:23;10.90;1.00
19033;DHT22;9649;51.042;13.804;2022-11-23T13:30:33;10.40;1.00
19033;DHT22;9649;51.042;13.804;2022-11-23T13:35:58;10.20;99.90
19033;DHT22;9649;51.042;13.804;2022-11-23T13:47:01;9.70;99.90
19033;DHT22;9649;51.042;13.804;2022-11-23T13:57:37;9.50;1.00
19033;DHT22;9649;51.042;13.804;2022-11-23T14:02:41;9.40;1.00
19033;DHT22;9649;51.042;13.804;2022-11-23T14:07:44;9.30;1.00
19033;DHT22;9649;51.042;13.804;2022-11-23T14:12:50;9.40;1.00
19033;DHT22;9649;51.042;13.804;2022-11-23T14:24:13;9.30;1.00
19033;DHT22;9649;51.042;13.804;2022-11-23T14:29:31;9.30;1.00
19033;DHT22;9649;51.042;13.804;2022-11-23T14:34:49;9.10;1.00
19033;DHT22;9649;51.042;13.804;2022-11-23T14:40:02;9.00;1.00
19033;DHT22;9649;51.042;13.804;2022-11-23T14:45:10;8.60;99.90
19033;DHT22;9649;51.042;13.804;2022-11-23T14:50:21;8.50;99.90
19033;DHT22;9649;51.042;13.804;2022-11-23T14:55:27;8.20;1.00
19033;DHT22;9649;51.042;13.804;2022-11-23T15:00:34;7.90;99.90
19033;DHT22;9649;51.042;13.804;2022-11-23T15:05:38;7.70;1.00
19033;DHT22;9649;51.042;13.804;2022-11-23T15:10:45;7.50;99.90
19033;DHT22;9649;51.042;13.804;2022-11-23T15:15:51;7.30;99.90
19033;DHT22;9649;51.042;13.804;2022-11-23T15:20:57;7.10;1.00
19033;DHT22;9649;51.042;13.804;2022-11-23T15:26:05;7.00;99.90
19033;DHT22;9649;51.042;13.804;2022-11-23T15:31:21;6.90;99.90
19033;DHT22;9649;51.042;13.804;2022-11-23T15:36:29;6.70;99.90
19033;DHT22;9649;51.042;13.804;2022-11-23T15:41:34;6.50;99.90
19033;DHT22;9649;51.042;13.804;2022-11-23T15:46:38;6.40;99.90
19033;DHT22;9649;51.042;13.804;2022-11-23T15:51:43;6.50;1.00
19033;DHT22;9649;51.042;13.804;2022-11-23T15:56:49;6.30;1.00
19033;DHT22;9649;51.042;13.804;2022-11-23T16:01:54;6.20;1.00
19033;DHT22;9649;51.042;13.804;2022-11-23T16:06:57;6.10;1.00
19033;DHT22;9649;51.042;13.804;2022-11-23T16:12:03;6.00;1.00
19033;DHT22;9649;51.042;13.804;2022-11-23T16:17:15;5.70;99.90
19033;DHT22;9649;51.042;13.804;2022-11-23T16:22:23;5.40;1.00
19033;DHT22;9649;51.042;13.804;2022-11-23T16:27:28;5.70;99.90
19033;DHT22;9649;51.042;13.804;2022-11-23T16:32:31;5.90;96.10
19033;DHT22;9649;51.042;13.804;2022-11-23T16:37:33;5.90;18.80
19033;DHT22;9649;51.042;13.804;2022-11-23T16:42:38;5.80;99.90
19033;DHT22;9649;51.042;13.804;2022-11-23T16:47:51;5.90;99.90
19033;DHT22;9649;51.042;13.804;2022-11-23T16:52:54;5.70;99.90
19033;DHT22;9649;51.042;13.804;2022-11-23T16:57:59;5.60;1.00
19033;DHT22;9649;51.042;13.804;2022-11-23T17:03:01;5.50;1.00
19033;DHT22;9649;51.042;13.804;2022-11-23T17:08:04;5.40;1.00
19033;DHT22;9649;51.042;13.804;2022-11-23T17:13:13;5.60;1.00
19033;DHT22;9649;51.042;13.804;2022-11-23T17:18:17;5.50;1.00
19033;DHT22;9649;51.042;13.804;2022-11-23T17:23:22;5.50;1.00
19033;DHT22;9649;51.042;13.804;2022-11-23T17:28:26;5.40;1.00
19033;DHT22;9649;51.042;13.804;2022-11-23T17:33:29;5.50;1.00
19033;DHT22;9649;51.042;13.804;2022-11-23T17:38:32;5.50;1.00
19033;DHT22;9649;51.042;13.804;2022-11-23T17:43:38;5.40;1.00
19033;DHT22;9649;51.042;13.804;2022-11-23T17:48:41;5.60;1.00
19033;DHT22;9649;51.042;13.804;2022-11-23T17:53:44;5.50;1.00
19033;DHT22;9649;51.042;13.804;2022-11-23T17:58:49;5.50;1.00
19033;DHT22;9649;51.042;13.804;2022-11-23T18:03:53;5.50;1.00
19033;DHT22;9649;51.042;13.804;2022-11-23T18:08:56;5.50;1.00
19033;DHT22;9649;51.042;13.804;2022-11-23T18:14:01;5.50;1.00
19033;DHT22;9649;51.042;13.804;2022-11-23T18:19:04;5.40;1.00
19033;DHT22;9649;51.042;13.804;2022-11-23T18:24:07;5.30;1.00
19033;DHT22;9649;51.042;13.804;2022-11-23T18:29:11;5.20;1.00
19033;DHT22;9649;51.042;13.804;2022-11-23T18:34:18;5.20;1.00
19033;DHT22;9649;51.042;13.804;2022-11-23T18:39:20;5.10;1.00
19033;DHT22;9649;51.042;13.804;2022-11-23T18:44:24;5.00;1.00
19033;DHT22;9649;51.042;13.804;2022-11-23T18:49:27;5.00;1.00
19033;DHT22;9649;51.042;13.804;2022-11-23T18:54:30;4.90;1.00
19033;DHT22;9649;51.042;13.804;2022-11-23T18:59:34;4.90;1.00
19033;DHT22;9649;51.042;13.804;2022-11-23T19:04:57;4.80;1.00
19033;DHT22;9649;51.042;13.804;2022-11-23T19:10:00;4.80;1.00
19033;DHT22;9649;51.042;13.804;2022-11-23T19:15:05;4.70;55.10
19033;DHT22;9649;51.042;13.804;2022-11-23T19:32:03;4.60;99.90
19033;DHT22;9649;51.042;13.804;2022-11-23T19:50:13;4.40;99.90
19033;DHT22;9649;51.042;13.804;2022-11-23T19:55:16;4.30;99.90
19033;DHT22;9649;51.042;13.804;2022-11-23T20:00:19;4.30;99.90
19033;DHT22;9649;51.042;13.804;2022-11-23T20:05:24;4.10;99.90
19033;DHT22;9649;51.042;13.804;2022-11-23T20:10:28;4.10;99.90
19033;DHT22;9649;51.042;13.804;2022-11-23T20:15:35;4.00;99.90
19033;DHT22;9649;51.042;13.804;2022-11-23T20:20:42;4.00;99.90
19033;DHT22;9649;51.042;13.804;2022-11-23T20:25:47;4.00;99.90
19033;DHT22;9649;51.042;13.804;2022-11-23T20:30:50;4.10;99.90
19033;DHT22;9649;51.042;13.804;2022-11-23T20:36:06;4.20;99.90
19033;DHT22;9649;51.042;13.804;2022-11-23T20:41:14;4.00;99.90
19033;DHT22;9649;51.042;13.804;2022-11-23T20:46:18;4.00;99.90
19033;DHT22;9649;51.042;13.804;2022-11-23T20:51:45;3.80;99.90
19033;DHT22;9649;51.042;13.804;2022-11-23T20:56:49;3.80;99.90
19033;DHT22;9649;51.042;13.804;2022-11-23T21:01:53;3.70;99.90
19033;DHT22;9649;51.042;13.804;2022-11-23T21:07:01;3.60;99.90
19033;DHT22;9649;51.042;13.804;2022-11-23T21:12:07;3.50;99.90
19033;DHT22;9649;51.042;13.804;2022-11-23T21:17:28;3.30;99.90
19033;DHT22;9649;51.042;13.804;2022-11-23T21:22:36;3.00;99.90
19033;DHT22;9649;51.042;13.804;2022-11-23T21:27:41;2.80;99.90
19033;DHT22;9649;51.042;13.804;2022-11-23T21:32:48;2.50;99.90
19033;DHT22;9649;51.042;13.804;2022-11-23T21:37:56;2.50;99.90
19033;DHT22;9649;51.042;13.804;2022-11-23T21:49:57;2.70;99.90
19033;DHT22;9649;51.042;13.804;2022-11-23T21:54:52;2.50;99.90
19033;DHT22;9649;51.042;13.804;2022-11-23T21:59:55;2.40;99.90
19033;DHT22;9649;51.042;13.804;2022-11-23T22:04:58;2.40;99.90
19033;DHT22;9649;51.042;13.804;2022-11-23T22:10:02;2.20;99.90
19033;DHT22;9649;51.042;13.804;2022-11-23T22:15:05;2.10;99.90
19033;DHT22;9649;51.042;13.804;2022-11-23T22:20:10;2.20;99.90
19033;DHT22;9649;51.042;13.804;2022-11-23T22:25:14;2.50;99.90
19033;DHT22;9649;51.042;13.804;2022-11-23T22:30:17;2.50;99.90
19033;DHT22;9649;51.042;13.804;2022-11-23T22:35:20;2.20;99.90
19033;DHT22;9649;51.042;13.804;2022-11-23T22:40:24;2.10;99.90
19033;DHT22;9649;51.042;13.804;2022-11-23T22:45:33;2.00;99.90
19033;DHT22;9649;51.042;13.804;2022-11-23T22:50:36;1.90;99.90
19033;DHT22;9649;51.042;13.804;2022-11-23T22:55:40;1.80;99.90
19033;DHT22;9649;51.042;13.804;2022-11-23T23:00:42;1.90;99.90
19033;DHT22;9649;51.042;13.804;2022-11-23T23:05:52;1.70;99.90
19033;DHT22;9649;51.042;13.804;2022-11-23T23:11:02;1.50;99.90
19033;DHT22;9649;51.042;13.804;2022-11-23T23:16:07;1.20;99.90
19033;DHT22;9649;51.042;13.804;2022-11-23T23:21:12;1.10;99.90
19033;DHT22;9649;51.042;13.804;2022-11-23T23:26:19;1.00;99.90
19033;DHT22;9649;51.042;13.804;2022-11-23T23:31:22;1.00;99.90
19033;DHT22;9649;51.042;13.804;2022-11-23T23:36:26;1.20;99.90
19033;DHT22;9649;51.042;13.804;2022-11-23T23:41:30;1.30;99.90
19033;DHT22;9649;51.042;13.804;2022-11-23T23:46:32;1.40;99.90
19033;DHT22;9649;51.042;13.804;2022-11-23T23:51:35;1.30;99.90
19033;DHT22;9649;51.042;13.804;2022-11-23T23:56:39;1.10;99.90
